Terminal Aerodrome Forecast
Issued by NWS Jacksonville, FL

Home | Current Version | Previous Version | Text Only | Print | Product List | Glossary On
Versions: 1 2 3 4 5 6 7 8 9 10 11 12 13 14 15 16 17 18 19 20 21 22 23 24 25 26 27 28 29 30 31 32 33 34 35 36 37
000
FTUS42 KJAX 281513 AAC
TAFJAX
TAF AMD
KJAX 281513Z 2815/2912 06008KT P6SM -SHRA SCT025 OVC040
      TEMPO 2816/2818 SCT015 OVC025
     FM281800 07011G18KT P6SM VCSH SCT030 BKN060 OVC200
     FM290300 10008KT P6SM VCSH SCT020 SCT060 BKN200 PROB30
      2906/2912 3SM +TSRA BR BKN025CB OVC100=

USA.gov is the U.S. government's official web portal to all federal, state and local government web resources and services.